createdAt,value
2023-03-25T00:00:57.009Z,17.1
2023-03-25T00:17:47.101Z,16.9
2023-03-25T00:23:07.608Z,17.1
2023-03-25T00:28:43.605Z,17.3
2023-03-25T00:34:20.656Z,17.3
2023-03-25T00:40:12.698Z,17.2
2023-03-25T00:45:49.385Z,17.1
2023-03-25T00:51:26.907Z,17.1
2023-03-25T00:57:27.996Z,17.1
2023-03-25T01:03:20.474Z,16.9
2023-03-25T01:08:57.540Z,16.9
2023-03-25T01:20:10.914Z,17.2
2023-03-25T01:26:03.018Z,17.3
2023-03-25T01:31:55.203Z,17.2
2023-03-25T01:37:16.231Z,17.1
2023-03-25T01:48:24.276Z,16.9
2023-03-25T01:54:15.410Z,16.9
2023-03-25T01:59:51.573Z,16.8
2023-03-25T02:05:28.583Z,16.9
2023-03-25T02:16:56.597Z,17.1
2023-03-25T02:22:48.426Z,17.1
2023-03-25T02:34:15.945Z,16.9
2023-03-25T02:39:51.963Z,16.8
2023-03-25T02:45:28.280Z,16.8
2023-03-25T02:51:20.432Z,16.7
2023-03-25T02:57:11.525Z,16.8
2023-03-25T03:03:03.396Z,16.9
2023-03-25T03:19:51.827Z,16.9
2023-03-25T03:25:43.873Z,16.9
2023-03-25T03:32:22.001Z,16.8
2023-03-25T03:38:13.606Z,16.7
2023-03-25T03:43:50.051Z,16.6
2023-03-25T03:49:41.602Z,16.7
2023-03-25T03:55:17.742Z,16.9
2023-03-25T04:01:09.996Z,16.9
2023-03-25T04:06:46.482Z,16.9
2023-03-25T04:12:37.554Z,16.8
2023-03-25T04:18:16.362Z,16.8
2023-03-25T04:23:52.756Z,16.7
2023-03-25T04:29:28.543Z,16.6
2023-03-25T04:35:20.706Z,16.6
2023-03-25T04:41:12.315Z,16.6
2023-03-25T04:46:33.073Z,16.5
2023-03-25T04:52:25.156Z,16.6
2023-03-25T04:58:17.005Z,16.8
2023-03-25T05:04:08.690Z,16.9
2023-03-25T05:10:01.067Z,16.8
2023-03-25T05:15:51.852Z,16.8
2023-03-25T05:21:28.246Z,16.8
2023-03-25T05:27:19.959Z,16.7
2023-03-25T05:33:12.928Z,16.6
2023-03-25T05:39:04.383Z,16.6
2023-03-25T05:44:41.865Z,16.5
2023-03-25T05:50:33.382Z,16.6
2023-03-25T05:56:29.243Z,16.8
2023-03-25T06:02:38.020Z,16.9
2023-03-25T06:08:28.303Z,16.9
2023-03-25T06:14:19.281Z,16.8
2023-03-25T06:20:11.620Z,16.8
2023-03-25T06:26:02.955Z,16.7
2023-03-25T06:31:53.929Z,16.6
2023-03-25T06:38:07.349Z,16.6
2023-03-25T06:43:43.019Z,16.8
2023-03-25T06:49:19.539Z,16.9
2023-03-25T06:55:11.081Z,16.9
2023-03-25T07:01:02.687Z,16.9
2023-03-25T07:06:55.472Z,16.8
2023-03-25T07:12:47.947Z,16.7
2023-03-25T07:18:43.351Z,16.6
2023-03-25T07:24:37.525Z,16.6
2023-03-25T07:30:30.167Z,16.7
2023-03-25T07:36:23.046Z,16.8
2023-03-25T07:42:15.283Z,16.9
2023-03-25T07:48:14.382Z,16.9
2023-03-25T07:54:06.088Z,16.9
2023-03-25T08:00:00.937Z,16.8
2023-03-25T08:05:55.474Z,16.8
2023-03-25T08:11:49.593Z,16.8
2023-03-25T08:17:41.888Z,16.8
2023-03-25T08:29:12.913Z,17.1
2023-03-25T08:35:04.736Z,17.1
2023-03-25T08:52:07.997Z,17.1
2023-03-25T08:57:29.070Z,17.3
2023-03-25T09:03:24.109Z,17.3
2023-03-25T09:09:24.231Z,17.3
2023-03-25T09:15:27.991Z,17.2
2023-03-25T09:21:21.439Z,17.3
2023-03-25T09:27:14.102Z,17.4
2023-03-25T09:33:06.758Z,17.5
2023-03-25T09:38:43.628Z,17.5
2023-03-25T09:44:35.089Z,17.4
2023-03-25T09:50:34.750Z,17.4
2023-03-25T09:56:26.716Z,17.6
2023-03-25T10:02:19.359Z,17.6
2023-03-25T10:07:41.209Z,17.6
2023-03-25T10:13:18.825Z,17.5
2023-03-25T10:19:11.789Z,17.5
2023-03-25T10:25:03.882Z,17.6
2023-03-25T10:30:55.349Z,17.7
2023-03-25T10:36:48.914Z,17.6
2023-03-25T10:42:41.058Z,17.6
2023-03-25T10:48:32.871Z,17.6
2023-03-25T10:54:24.261Z,17.6
2023-03-25T11:00:16.301Z,17.5
2023-03-25T11:06:09.182Z,17.4
2023-03-25T11:12:14.063Z,17.4
2023-03-25T11:18:04.122Z,17.4
2023-03-25T11:23:58.826Z,17.3
2023-03-25T11:29:50.966Z,17.2
2023-03-25T11:35:43.018Z,17.1
2023-03-25T11:41:35.488Z,17.1
2023-03-25T11:52:32.630Z,16.9
2023-03-25T11:58:24.542Z,16.9
2023-03-25T12:03:45.933Z,16.9
2023-03-25T12:09:22.983Z,16.8
2023-03-25T12:15:17.266Z,16.8
2023-03-25T12:21:09.393Z,16.8
2023-03-25T12:26:46.311Z,16.8
2023-03-25T12:32:38.621Z,16.7
2023-03-25T12:38:30.636Z,16.7
2023-03-25T12:44:39.388Z,16.6
2023-03-25T12:50:16.082Z,16.6
2023-03-25T12:55:39.969Z,16.6
2023-03-25T13:01:32.361Z,16.6
2023-03-25T13:07:25.610Z,16.6
2023-03-25T13:13:17.220Z,16.5
2023-03-25T13:19:02.756Z,16.5
2023-03-25T13:24:59.860Z,16.5
2023-03-25T13:30:52.224Z,16.4
2023-03-25T13:36:29.753Z,16.4
2023-03-25T13:42:24.779Z,16.4
2023-03-25T13:48:01.478Z,16.4
2023-03-25T13:53:39.146Z,16.4
2023-03-25T13:59:32.538Z,16.4
2023-03-25T14:05:27.257Z,16.4
2023-03-25T14:11:19.602Z,16.3
2023-03-25T14:16:56.437Z,16.3
2023-03-25T14:22:37.359Z,16.3
2023-03-25T14:28:13.615Z,16.3
2023-03-25T14:34:06.055Z,16.3
2023-03-25T14:39:42.904Z,16.3
2023-03-25T14:45:48.521Z,16.3
2023-03-25T14:51:39.847Z,16.3
2023-03-25T14:57:16.207Z,16.3
2023-03-25T15:03:11.953Z,16.3
2023-03-25T15:09:03.703Z,16.3
2023-03-25T15:14:39.981Z,16.2
2023-03-25T15:20:31.943Z,16.3
2023-03-25T15:26:23.644Z,16.3
2023-03-25T15:32:15.674Z,16.2
2023-03-25T15:38:18.852Z,16.2
2023-03-25T15:44:22.738Z,16.3
2023-03-25T15:50:15.137Z,16.2
2023-03-25T15:56:12.248Z,16.2
2023-03-25T16:02:03.393Z,16.2
2023-03-25T16:07:54.891Z,16.2
2023-03-25T16:13:46.659Z,16.2
2023-03-25T16:19:23.252Z,16.2
2023-03-25T16:24:59.012Z,16.2
2023-03-25T16:30:38.033Z,16.2
2023-03-25T16:36:16.320Z,16.2
2023-03-25T16:41:52.445Z,16.2
2023-03-25T16:47:29.208Z,16.2
2023-03-25T16:53:06.167Z,16.2
2023-03-25T16:58:57.895Z,16.2
2023-03-25T17:04:51.089Z,16.1
2023-03-25T17:10:42.622Z,16.1
2023-03-25T17:16:21.769Z,16.2
2023-03-25T17:21:59.096Z,16.2
2023-03-25T17:27:50.936Z,16.2
2023-03-25T17:33:44.305Z,16.1
2023-03-25T17:39:20.920Z,16.1
2023-03-25T17:45:13.277Z,16.1
2023-03-25T17:51:05.622Z,16.1
2023-03-25T17:56:57.044Z,16.1
2023-03-25T18:02:49.459Z,16.1
2023-03-25T18:08:40.710Z,16.1
2023-03-25T18:14:32.258Z,16.1
2023-03-25T18:20:09.070Z,16.1
2023-03-25T18:25:58.231Z,16.1
2023-03-25T18:32:04.430Z,16.1
2023-03-25T18:37:55.959Z,16.1
2023-03-25T18:43:31.842Z,16
2023-03-25T18:49:23.791Z,16
2023-03-25T18:54:59.017Z,16
2023-03-25T19:00:50.030Z,16
2023-03-25T19:06:56.244Z,16
2023-03-25T19:13:00.393Z,16
2023-03-25T19:19:00.089Z,16
2023-03-25T19:24:51.522Z,15.9
2023-03-25T19:30:42.852Z,15.9
2023-03-25T19:36:35.516Z,15.9
2023-03-25T19:42:12.788Z,15.9
2023-03-25T19:47:50.167Z,15.9
2023-03-25T19:53:40.865Z,15.9
2023-03-25T19:59:32.792Z,15.9
2023-03-25T20:05:10.252Z,15.9
2023-03-25T20:11:10.908Z,15.9
2023-03-25T20:16:47.661Z,15.9
2023-03-25T20:22:38.430Z,15.9
2023-03-25T20:27:59.156Z,15.9
2023-03-25T20:33:46.818Z,15.9
2023-03-25T20:39:47.406Z,15.9
2023-03-25T20:45:45.613Z,15.9
2023-03-25T20:51:37.757Z,15.8
2023-03-25T20:57:30.275Z,15.8
2023-03-25T21:03:06.937Z,15.8
2023-03-25T21:09:09.133Z,15.8
2023-03-25T21:15:12.581Z,15.8
2023-03-25T21:21:04.719Z,15.8
2023-03-25T21:26:43.764Z,15.8
2023-03-25T21:32:37.443Z,16.1
2023-03-25T21:38:28.358Z,16.6
2023-03-25T21:44:39.597Z,16.8
2023-03-25T21:50:31.764Z,16.9
2023-03-25T21:56:10.528Z,16.9
2023-03-25T22:01:32.226Z,16.9
2023-03-25T22:07:09.254Z,16.9
2023-03-25T22:12:59.943Z,16.9
2023-03-25T22:18:52.328Z,16.9
2023-03-25T22:24:46.881Z,17.1
2023-03-25T22:30:22.657Z,17.3
2023-03-25T22:36:14.346Z,17.3
2023-03-25T22:41:50.861Z,17.3
2023-03-25T22:47:42.984Z,17.2
2023-03-25T22:53:35.131Z,17.2
2023-03-25T22:59:27.838Z,17.1
2023-03-25T23:16:28.764Z,17.1
2023-03-25T23:22:05.645Z,17.3
2023-03-25T23:28:00.525Z,17.3
2023-03-25T23:33:52.483Z,17.3
2023-03-25T23:39:28.826Z,17.1
2023-03-25T23:45:21.592Z,17.1
2023-03-25T23:56:17.956Z,16.9
